sensor_id;sensor_type;location;lat;lon;timestamp;temperature;humidity
72128;DHT22;60000;51.030;7.024;2023-07-13T00:02:07;17.48;56.72
72128;DHT22;60000;51.030;7.024;2023-07-13T00:04:33;17.43;57.01
72128;DHT22;60000;51.030;7.024;2023-07-13T00:06:58;17.35;57.45
72128;DHT22;60000;51.030;7.024;2023-07-13T00:09:23;17.25;57.61
72128;DHT22;60000;51.030;7.024;2023-07-13T00:11:54;17.19;57.62
72128;DHT22;60000;51.030;7.024;2023-07-13T00:14:20;17.15;57.73
72128;DHT22;60000;51.030;7.024;2023-07-13T00:16:45;17.11;57.85
72128;DHT22;60000;51.030;7.024;2023-07-13T00:19:12;17.07;57.99
72128;DHT22;60000;51.030;7.024;2023-07-13T00:21:40;17.04;58.37
72128;DHT22;60000;51.030;7.024;2023-07-13T00:24:07;16.98;58.29
72128;DHT22;60000;51.030;7.024;2023-07-13T00:26:33;16.95;58.43
72128;DHT22;60000;51.030;7.024;2023-07-13T00:28:59;16.92;58.54
72128;DHT22;60000;51.030;7.024;2023-07-13T00:31:25;16.90;59.22
72128;DHT22;60000;51.030;7.024;2023-07-13T00:33:50;16.92;59.43
72128;DHT22;60000;51.030;7.024;2023-07-13T00:36:16;16.90;59.36
72128;DHT22;60000;51.030;7.024;2023-07-13T00:38:42;16.92;59.37
72128;DHT22;60000;51.030;7.024;2023-07-13T00:41:08;16.94;59.31
72128;DHT22;60000;51.030;7.024;2023-07-13T00:43:34;16.91;59.32
72128;DHT22;60000;51.030;7.024;2023-07-13T00:46:13;16.92;59.45
72128;DHT22;60000;51.030;7.024;2023-07-13T00:48:39;16.92;59.39
72128;DHT22;60000;51.030;7.024;2023-07-13T00:51:05;16.91;59.58
72128;DHT22;60000;51.030;7.024;2023-07-13T00:53:32;16.91;59.63
72128;DHT22;60000;51.030;7.024;2023-07-13T00:55:58;16.88;59.70
72128;DHT22;60000;51.030;7.024;2023-07-13T00:58:25;16.88;60.00
72128;DHT22;60000;51.030;7.024;2023-07-13T01:00:51;16.84;59.98
72128;DHT22;60000;51.030;7.024;2023-07-13T01:03:16;16.83;60.33
72128;DHT22;60000;51.030;7.024;2023-07-13T01:05:42;16.81;60.49
72128;DHT22;60000;51.030;7.024;2023-07-13T01:08:08;16.77;60.52
72128;DHT22;60000;51.030;7.024;2023-07-13T01:10:34;16.80;60.53
72128;DHT22;60000;51.030;7.024;2023-07-13T01:13:05;16.80;60.43
72128;DHT22;60000;51.030;7.024;2023-07-13T01:15:44;16.77;60.64
72128;DHT22;60000;51.030;7.024;2023-07-13T01:18:25;16.74;60.64
72128;DHT22;60000;51.030;7.024;2023-07-13T01:21:03;16.73;60.92
72128;DHT22;60000;51.030;7.024;2023-07-13T01:23:30;16.70;61.02
72128;DHT22;60000;51.030;7.024;2023-07-13T01:25:56;16.64;61.14
72128;DHT22;60000;51.030;7.024;2023-07-13T01:28:23;16.61;61.42
72128;DHT22;60000;51.030;7.024;2023-07-13T01:30:52;16.60;61.44
72128;DHT22;60000;51.030;7.024;2023-07-13T01:33:18;16.57;61.55
72128;DHT22;60000;51.030;7.024;2023-07-13T01:35:45;16.55;61.67
72128;DHT22;60000;51.030;7.024;2023-07-13T01:38:13;16.50;61.70
72128;DHT22;60000;51.030;7.024;2023-07-13T01:40:39;16.48;61.64
72128;DHT22;60000;51.030;7.024;2023-07-13T01:43:04;16.43;61.74
72128;DHT22;60000;51.030;7.024;2023-07-13T01:45:30;16.39;62.17
72128;DHT22;60000;51.030;7.024;2023-07-13T01:47:55;16.33;62.13
72128;DHT22;60000;51.030;7.024;2023-07-13T01:50:21;16.29;62.71
72128;DHT22;60000;51.030;7.024;2023-07-13T01:52:46;16.22;62.78
72128;DHT22;60000;51.030;7.024;2023-07-13T01:55:11;16.22;63.35
72128;DHT22;60000;51.030;7.024;2023-07-13T01:57:37;16.13;63.51
72128;DHT22;60000;51.030;7.024;2023-07-13T02:00:04;16.06;63.58
72128;DHT22;60000;51.030;7.024;2023-07-13T02:02:30;16.01;63.82
72128;DHT22;60000;51.030;7.024;2023-07-13T02:04:55;15.97;64.02
72128;DHT22;60000;51.030;7.024;2023-07-13T02:07:21;15.92;64.38
72128;DHT22;60000;51.030;7.024;2023-07-13T02:09:46;15.97;64.35
72128;DHT22;60000;51.030;7.024;2023-07-13T02:12:12;15.98;64.52
72128;DHT22;60000;51.030;7.024;2023-07-13T02:14:37;16.02;64.57
72128;DHT22;60000;51.030;7.024;2023-07-13T02:17:03;16.05;64.67
72128;DHT22;60000;51.030;7.024;2023-07-13T02:19:29;16.08;64.66
72128;DHT22;60000;51.030;7.024;2023-07-13T02:21:54;16.12;64.58
72128;DHT22;60000;51.030;7.024;2023-07-13T02:24:19;16.08;64.51
72128;DHT22;60000;51.030;7.024;2023-07-13T02:26:46;16.09;64.64
72128;DHT22;60000;51.030;7.024;2023-07-13T02:29:11;16.05;64.89
72128;DHT22;60000;51.030;7.024;2023-07-13T02:31:37;16.06;64.89
72128;DHT22;60000;51.030;7.024;2023-07-13T02:34:03;16.05;64.93
72128;DHT22;60000;51.030;7.024;2023-07-13T02:36:29;15.99;64.95
72128;DHT22;60000;51.030;7.024;2023-07-13T02:38:55;15.99;65.04
72128;DHT22;60000;51.030;7.024;2023-07-13T02:41:20;15.95;65.06
72128;DHT22;60000;51.030;7.024;2023-07-13T02:43:46;15.92;65.29
72128;DHT22;60000;51.030;7.024;2023-07-13T02:46:11;15.91;65.33
72128;DHT22;60000;51.030;7.024;2023-07-13T02:48:37;15.88;65.38
72128;DHT22;60000;51.030;7.024;2023-07-13T02:51:03;15.82;65.27
72128;DHT22;60000;51.030;7.024;2023-07-13T02:53:29;15.78;65.45
72128;DHT22;60000;51.030;7.024;2023-07-13T02:55:54;15.71;65.73
72128;DHT22;60000;51.030;7.024;2023-07-13T02:58:20;15.67;65.76
72128;DHT22;60000;51.030;7.024;2023-07-13T03:00:47;15.62;65.61
72128;DHT22;60000;51.030;7.024;2023-07-13T03:03:13;15.60;65.96
72128;DHT22;60000;51.030;7.024;2023-07-13T03:05:41;15.55;66.12
72128;DHT22;60000;51.030;7.024;2023-07-13T03:08:07;15.51;66.58
72128;DHT22;60000;51.030;7.024;2023-07-13T03:10:33;15.49;66.70
72128;DHT22;60000;51.030;7.024;2023-07-13T03:12:58;15.47;66.89
72128;DHT22;60000;51.030;7.024;2023-07-13T03:15:23;15.41;67.33
72128;DHT22;60000;51.030;7.024;2023-07-13T03:17:49;15.39;67.18
72128;DHT22;60000;51.030;7.024;2023-07-13T03:20:14;15.36;67.57
72128;DHT22;60000;51.030;7.024;2023-07-13T03:22:40;15.37;67.59
72128;DHT22;60000;51.030;7.024;2023-07-13T03:25:05;15.37;67.50
72128;DHT22;60000;51.030;7.024;2023-07-13T03:27:31;15.33;67.87
72128;DHT22;60000;51.030;7.024;2023-07-13T03:29:56;15.31;67.78
72128;DHT22;60000;51.030;7.024;2023-07-13T03:32:21;15.29;67.77
72128;DHT22;60000;51.030;7.024;2023-07-13T03:34:47;15.30;67.95
72128;DHT22;60000;51.030;7.024;2023-07-13T03:37:12;15.29;68.14
72128;DHT22;60000;51.030;7.024;2023-07-13T03:39:37;15.24;68.18
72128;DHT22;60000;51.030;7.024;2023-07-13T03:42:03;15.24;68.30
72128;DHT22;60000;51.030;7.024;2023-07-13T03:44:28;15.22;68.52
72128;DHT22;60000;51.030;7.024;2023-07-13T03:46:53;15.19;68.37
72128;DHT22;60000;51.030;7.024;2023-07-13T03:49:19;15.20;68.57
72128;DHT22;60000;51.030;7.024;2023-07-13T03:51:44;15.18;68.72
72128;DHT22;60000;51.030;7.024;2023-07-13T03:54:09;15.23;68.61
72128;DHT22;60000;51.030;7.024;2023-07-13T03:56:35;15.27;68.51
72128;DHT22;60000;51.030;7.024;2023-07-13T03:59:00;15.29;68.43
72128;DHT22;60000;51.030;7.024;2023-07-13T04:01:26;15.29;68.33
72128;DHT22;60000;51.030;7.024;2023-07-13T04:03:52;15.33;68.37
72128;DHT22;60000;51.030;7.024;2023-07-13T04:06:23;15.36;68.39
72128;DHT22;60000;51.030;7.024;2023-07-13T04:08:59;15.39;68.35
72128;DHT22;60000;51.030;7.024;2023-07-13T04:11:29;15.39;68.25
72128;DHT22;60000;51.030;7.024;2023-07-13T04:13:55;15.40;68.16
72128;DHT22;60000;51.030;7.024;2023-07-13T04:16:21;15.43;68.14
72128;DHT22;60000;51.030;7.024;2023-07-13T04:18:47;15.46;68.05
72128;DHT22;60000;51.030;7.024;2023-07-13T04:21:13;15.47;68.11
72128;DHT22;60000;51.030;7.024;2023-07-13T04:23:39;15.47;68.04
72128;DHT22;60000;51.030;7.024;2023-07-13T04:26:05;15.47;68.04
72128;DHT22;60000;51.030;7.024;2023-07-13T04:28:31;15.50;68.09
72128;DHT22;60000;51.030;7.024;2023-07-13T04:30:56;15.53;68.10
72128;DHT22;60000;51.030;7.024;2023-07-13T04:33:22;15.55;68.20
72128;DHT22;60000;51.030;7.024;2023-07-13T04:35:52;15.58;68.26
72128;DHT22;60000;51.030;7.024;2023-07-13T04:38:27;15.61;68.29
72128;DHT22;60000;51.030;7.024;2023-07-13T04:40:59;15.61;68.40
72128;DHT22;60000;51.030;7.024;2023-07-13T04:43:24;15.67;68.33
72128;DHT22;60000;51.030;7.024;2023-07-13T04:45:51;15.68;68.27
72128;DHT22;60000;51.030;7.024;2023-07-13T04:48:17;15.72;68.22
72128;DHT22;60000;51.030;7.024;2023-07-13T04:50:42;15.74;68.14
72128;DHT22;60000;51.030;7.024;2023-07-13T04:53:08;15.78;68.27
72128;DHT22;60000;51.030;7.024;2023-07-13T04:55:34;15.82;68.25
72128;DHT22;60000;51.030;7.024;2023-07-13T04:57:59;15.87;68.37
72128;DHT22;60000;51.030;7.024;2023-07-13T05:00:26;15.92;68.47
72128;DHT22;60000;51.030;7.024;2023-07-13T05:02:51;15.97;68.39
72128;DHT22;60000;51.030;7.024;2023-07-13T05:05:17;15.99;68.50
72128;DHT22;60000;51.030;7.024;2023-07-13T05:07:42;16.04;68.46
72128;DHT22;60000;51.030;7.024;2023-07-13T05:10:08;16.08;68.39
72128;DHT22;60000;51.030;7.024;2023-07-13T05:12:34;16.18;68.26
72128;DHT22;60000;51.030;7.024;2023-07-13T05:14:59;16.25;68.19
72128;DHT22;60000;51.030;7.024;2023-07-13T05:17:24;16.30;68.03
72128;DHT22;60000;51.030;7.024;2023-07-13T05:19:50;16.33;67.90
72128;DHT22;60000;51.030;7.024;2023-07-13T05:22:15;16.36;67.76
72128;DHT22;60000;51.030;7.024;2023-07-13T05:24:40;16.40;67.87
72128;DHT22;60000;51.030;7.024;2023-07-13T05:27:06;16.43;67.86
72128;DHT22;60000;51.030;7.024;2023-07-13T05:29:31;16.46;67.72
72128;DHT22;60000;51.030;7.024;2023-07-13T05:31:56;16.52;67.53
72128;DHT22;60000;51.030;7.024;2023-07-13T05:34:22;16.53;67.52
72128;DHT22;60000;51.030;7.024;2023-07-13T05:36:48;16.57;67.68
72128;DHT22;60000;51.030;7.024;2023-07-13T05:39:14;16.63;67.55
72128;DHT22;60000;51.030;7.024;2023-07-13T05:41:39;16.69;67.62
72128;DHT22;60000;51.030;7.024;2023-07-13T05:44:04;16.76;67.54
72128;DHT22;60000;51.030;7.024;2023-07-13T05:46:30;16.83;67.18
72128;DHT22;60000;51.030;7.024;2023-07-13T05:48:56;16.92;67.33
72128;DHT22;60000;51.030;7.024;2023-07-13T05:51:21;17.03;67.18
72128;DHT22;60000;51.030;7.024;2023-07-13T05:53:46;17.17;67.19
72128;DHT22;60000;51.030;7.024;2023-07-13T05:56:12;17.28;66.63
72128;DHT22;60000;51.030;7.024;2023-07-13T05:58:37;17.38;66.50
72128;DHT22;60000;51.030;7.024;2023-07-13T06:01:11;17.46;65.62
72128;DHT22;60000;51.030;7.024;2023-07-13T06:03:37;17.55;65.78
72128;DHT22;60000;51.030;7.024;2023-07-13T06:06:06;17.62;65.71
72128;DHT22;60000;51.030;7.024;2023-07-13T06:08:32;17.76;65.15
72128;DHT22;60000;51.030;7.024;2023-07-13T06:11:05;17.87;65.33
72128;DHT22;60000;51.030;7.024;2023-07-13T06:13:31;18.00;64.47
72128;DHT22;60000;51.030;7.024;2023-07-13T06:15:56;18.16;65.12
72128;DHT22;60000;51.030;7.024;2023-07-13T06:18:21;18.26;63.76
72128;DHT22;60000;51.030;7.024;2023-07-13T06:20:47;18.18;63.71
72128;DHT22;60000;51.030;7.024;2023-07-13T06:23:12;18.21;63.90
72128;DHT22;60000;51.030;7.024;2023-07-13T06:25:37;18.33;63.97
72128;DHT22;60000;51.030;7.024;2023-07-13T06:28:03;18.57;63.92
72128;DHT22;60000;51.030;7.024;2023-07-13T06:30:28;18.79;63.00
72128;DHT22;60000;51.030;7.024;2023-07-13T06:32:53;19.17;63.05
72128;DHT22;60000;51.030;7.024;2023-07-13T06:35:19;19.40;61.30
72128;DHT22;60000;51.030;7.024;2023-07-13T06:37:44;19.54;60.84
72128;DHT22;60000;51.030;7.024;2023-07-13T06:40:10;19.68;60.46
72128;DHT22;60000;51.030;7.024;2023-07-13T06:42:35;19.91;59.98
72128;DHT22;60000;51.030;7.024;2023-07-13T06:45:01;20.06;58.92
72128;DHT22;60000;51.030;7.024;2023-07-13T06:47:26;20.32;58.86
72128;DHT22;60000;51.030;7.024;2023-07-13T06:49:52;20.79;59.06
72128;DHT22;60000;51.030;7.024;2023-07-13T06:52:17;20.94;56.20
72128;DHT22;60000;51.030;7.024;2023-07-13T06:54:43;21.07;55.94
72128;DHT22;60000;51.030;7.024;2023-07-13T06:57:08;21.32;56.01
72128;DHT22;60000;51.030;7.024;2023-07-13T06:59:34;21.37;55.05
72128;DHT22;60000;51.030;7.024;2023-07-13T07:01:59;21.35;55.22
72128;DHT22;60000;51.030;7.024;2023-07-13T07:04:24;21.18;55.09
72128;DHT22;60000;51.030;7.024;2023-07-13T07:06:50;21.21;55.29
72128;DHT22;60000;51.030;7.024;2023-07-13T07:09:15;21.24;55.96
72128;DHT22;60000;51.030;7.024;2023-07-13T07:11:41;21.39;55.90
72128;DHT22;60000;51.030;7.024;2023-07-13T07:14:07;22.03;57.64
72128;DHT22;60000;51.030;7.024;2023-07-13T07:16:33;22.44;53.82
72128;DHT22;60000;51.030;7.024;2023-07-13T07:18:58;22.37;52.24
72128;DHT22;60000;51.030;7.024;2023-07-13T07:21:23;22.40;53.37
72128;DHT22;60000;51.030;7.024;2023-07-13T07:23:49;22.55;53.07
72128;DHT22;60000;51.030;7.024;2023-07-13T07:26:14;22.36;52.75
72128;DHT22;60000;51.030;7.024;2023-07-13T07:28:40;22.18;52.97
72128;DHT22;60000;51.030;7.024;2023-07-13T07:31:06;21.99;52.90
72128;DHT22;60000;51.030;7.024;2023-07-13T07:33:33;21.97;53.60
72128;DHT22;60000;51.030;7.024;2023-07-13T07:36:01;21.89;53.51
72128;DHT22;60000;51.030;7.024;2023-07-13T07:38:26;21.58;53.88
72128;DHT22;60000;51.030;7.024;2023-07-13T07:40:52;21.48;54.18
72128;DHT22;60000;51.030;7.024;2023-07-13T07:43:18;21.21;54.88
72128;DHT22;60000;51.030;7.024;2023-07-13T07:45:44;21.10;55.71
72128;DHT22;60000;51.030;7.024;2023-07-13T07:48:10;21.08;56.03
72128;DHT22;60000;51.030;7.024;2023-07-13T07:50:36;21.04;56.32
72128;DHT22;60000;51.030;7.024;2023-07-13T07:53:02;20.93;56.09
72128;DHT22;60000;51.030;7.024;2023-07-13T07:55:28;20.94;56.79
72128;DHT22;60000;51.030;7.024;2023-07-13T07:57:54;20.93;56.66
72128;DHT22;60000;51.030;7.024;2023-07-13T08:00:20;20.90;56.61
72128;DHT22;60000;51.030;7.024;2023-07-13T08:02:45;20.91;57.11
72128;DHT22;60000;51.030;7.024;2023-07-13T08:05:11;20.87;56.61
72128;DHT22;60000;51.030;7.024;2023-07-13T08:07:37;20.84;56.61
72128;DHT22;60000;51.030;7.024;2023-07-13T08:10:04;20.77;56.67
72128;DHT22;60000;51.030;7.024;2023-07-13T08:12:29;20.70;56.91
72128;DHT22;60000;51.030;7.024;2023-07-13T08:14:55;20.70;57.64
72128;DHT22;60000;51.030;7.024;2023-07-13T08:17:23;20.88;57.58
72128;DHT22;60000;51.030;7.024;2023-07-13T08:19:49;21.17;57.64
72128;DHT22;60000;51.030;7.024;2023-07-13T08:22:15;21.31;56.55
72128;DHT22;60000;51.030;7.024;2023-07-13T08:24:40;21.42;55.96
72128;DHT22;60000;51.030;7.024;2023-07-13T08:27:07;21.45;55.84
72128;DHT22;60000;51.030;7.024;2023-07-13T08:29:33;21.59;56.02
72128;DHT22;60000;51.030;7.024;2023-07-13T08:31:58;21.75;55.66
72128;DHT22;60000;51.030;7.024;2023-07-13T08:34:23;21.99;55.51
72128;DHT22;60000;51.030;7.024;2023-07-13T08:36:48;22.21;55.41
72128;DHT22;60000;51.030;7.024;2023-07-13T08:39:14;22.33;54.29
72128;DHT22;60000;51.030;7.024;2023-07-13T08:41:39;22.52;53.59
72128;DHT22;60000;51.030;7.024;2023-07-13T08:44:10;22.76;54.76
72128;DHT22;60000;51.030;7.024;2023-07-13T08:46:42;23.27;53.39
72128;DHT22;60000;51.030;7.024;2023-07-13T08:49:16;23.18;52.16
72128;DHT22;60000;51.030;7.024;2023-07-13T08:51:50;23.09;51.55
72128;DHT22;60000;51.030;7.024;2023-07-13T08:54:37;22.91;52.57
72128;DHT22;60000;51.030;7.024;2023-07-13T08:57:13;22.87;52.45
72128;DHT22;60000;51.030;7.024;2023-07-13T08:59:38;23.16;52.40
72128;DHT22;60000;51.030;7.024;2023-07-13T09:02:25;23.58;52.11
72128;DHT22;60000;51.030;7.024;2023-07-13T09:05:01;23.64;51.15
72128;DHT22;60000;51.030;7.024;2023-07-13T09:10:30;24.35;49.18
72128;DHT22;60000;51.030;7.024;2023-07-13T09:15:43;24.86;47.10
72128;DHT22;60000;51.030;7.024;2023-07-13T09:18:16;24.49;47.60
72128;DHT22;60000;51.030;7.024;2023-07-13T09:20:50;24.51;47.91
72128;DHT22;60000;51.030;7.024;2023-07-13T09:23:20;24.75;48.50
72128;DHT22;60000;51.030;7.024;2023-07-13T09:25:49;24.56;47.18
72128;DHT22;60000;51.030;7.024;2023-07-13T09:28:28;24.93;48.57
72128;DHT22;60000;51.030;7.024;2023-07-13T09:31:02;25.13;47.56
72128;DHT22;60000;51.030;7.024;2023-07-13T09:33:28;25.27;47.73
72128;DHT22;60000;51.030;7.024;2023-07-13T09:35:56;25.97;46.28
72128;DHT22;60000;51.030;7.024;2023-07-13T09:38:24;25.55;44.74
72128;DHT22;60000;51.030;7.024;2023-07-13T09:41:13;25.25;45.94
72128;DHT22;60000;51.030;7.024;2023-07-13T09:44:00;25.46;44.86
72128;DHT22;60000;51.030;7.024;2023-07-13T09:46:26;25.54;45.31
72128;DHT22;60000;51.030;7.024;2023-07-13T09:48:51;25.75;45.41
72128;DHT22;60000;51.030;7.024;2023-07-13T09:51:16;25.97;43.88
72128;DHT22;60000;51.030;7.024;2023-07-13T09:53:43;26.26;44.85
72128;DHT22;60000;51.030;7.024;2023-07-13T09:56:29;26.41;44.12
72128;DHT22;60000;51.030;7.024;2023-07-13T09:58:55;26.48;44.03
72128;DHT22;60000;51.030;7.024;2023-07-13T10:01:35;26.58;43.59
72128;DHT22;60000;51.030;7.024;2023-07-13T10:04:01;26.55;41.88
72128;DHT22;60000;51.030;7.024;2023-07-13T10:06:27;26.43;42.86
72128;DHT22;60000;51.030;7.024;2023-07-13T10:08:54;26.13;42.56
72128;DHT22;60000;51.030;7.024;2023-07-13T10:11:28;26.50;42.39
72128;DHT22;60000;51.030;7.024;2023-07-13T10:13:56;26.82;43.69
72128;DHT22;60000;51.030;7.024;2023-07-13T10:16:24;26.62;41.43
72128;DHT22;60000;51.030;7.024;2023-07-13T10:18:55;26.00;43.05
72128;DHT22;60000;51.030;7.024;2023-07-13T10:21:26;25.93;43.78
72128;DHT22;60000;51.030;7.024;2023-07-13T10:24:17;25.65;44.13
72128;DHT22;60000;51.030;7.024;2023-07-13T10:27:18;26.10;44.80
72128;DHT22;60000;51.030;7.024;2023-07-13T10:30:00;25.94;42.97
72128;DHT22;60000;51.030;7.024;2023-07-13T10:32:26;25.69;44.37
72128;DHT22;60000;51.030;7.024;2023-07-13T10:34:52;25.93;43.42
72128;DHT22;60000;51.030;7.024;2023-07-13T10:37:23;25.73;44.11
72128;DHT22;60000;51.030;7.024;2023-07-13T10:39:52;25.88;43.54
72128;DHT22;60000;51.030;7.024;2023-07-13T10:42:28;25.64;43.49
72128;DHT22;60000;51.030;7.024;2023-07-13T10:44:54;25.55;44.21
72128;DHT22;60000;51.030;7.024;2023-07-13T10:47:19;25.25;44.54
72128;DHT22;60000;51.030;7.024;2023-07-13T10:49:46;25.48;44.90
72128;DHT22;60000;51.030;7.024;2023-07-13T10:55:04;26.00;42.76
72128;DHT22;60000;51.030;7.024;2023-07-13T10:57:41;26.22;41.97
72128;DHT22;60000;51.030;7.024;2023-07-13T11:02:38;26.07;41.27
72128;DHT22;60000;51.030;7.024;2023-07-13T11:05:28;25.69;42.94
72128;DHT22;60000;51.030;7.024;2023-07-13T11:18:50;24.40;44.19
72128;DHT22;60000;51.030;7.024;2023-07-13T11:21:20;24.15;44.81
72128;DHT22;60000;51.030;7.024;2023-07-13T11:23:54;24.09;45.51
72128;DHT22;60000;51.030;7.024;2023-07-13T11:31:54;24.12;45.66
72128;DHT22;60000;51.030;7.024;2023-07-13T11:34:38;24.07;45.83
72128;DHT22;60000;51.030;7.024;2023-07-13T11:37:12;24.02;46.32
72128;DHT22;60000;51.030;7.024;2023-07-13T11:39:42;24.42;45.29
72128;DHT22;60000;51.030;7.024;2023-07-13T11:42:13;24.55;44.80
72128;DHT22;60000;51.030;7.024;2023-07-13T11:44:46;24.65;44.40
72128;DHT22;60000;51.030;7.024;2023-07-13T11:47:17;24.65;43.44
72128;DHT22;60000;51.030;7.024;2023-07-13T11:49:54;24.51;43.56
72128;DHT22;60000;51.030;7.024;2023-07-13T11:52:36;24.28;44.01
72128;DHT22;60000;51.030;7.024;2023-07-13T11:55:04;24.08;44.56
72128;DHT22;60000;51.030;7.024;2023-07-13T11:57:43;23.93;45.37
72128;DHT22;60000;51.030;7.024;2023-07-13T12:00:15;23.97;46.03
72128;DHT22;60000;51.030;7.024;2023-07-13T12:02:46;24.05;45.76
72128;DHT22;60000;51.030;7.024;2023-07-13T12:05:14;24.24;45.98
72128;DHT22;60000;51.030;7.024;2023-07-13T12:07:41;24.33;45.55
72128;DHT22;60000;51.030;7.024;2023-07-13T12:10:28;24.56;45.48
72128;DHT22;60000;51.030;7.024;2023-07-13T12:13:04;24.65;45.00
72128;DHT22;60000;51.030;7.024;2023-07-13T12:15:44;24.76;44.93
72128;DHT22;60000;51.030;7.024;2023-07-13T12:18:23;24.73;43.69
72128;DHT22;60000;51.030;7.024;2023-07-13T12:20:50;24.60;43.35
72128;DHT22;60000;51.030;7.024;2023-07-13T12:23:24;24.45;43.72
72128;DHT22;60000;51.030;7.024;2023-07-13T12:25:51;24.55;43.76
72128;DHT22;60000;51.030;7.024;2023-07-13T12:28:37;24.66;42.92
72128;DHT22;60000;51.030;7.024;2023-07-13T12:31:18;24.66;41.96
72128;DHT22;60000;51.030;7.024;2023-07-13T12:33:47;24.67;42.40
72128;DHT22;60000;51.030;7.024;2023-07-13T12:36:12;24.55;42.96
72128;DHT22;60000;51.030;7.024;2023-07-13T12:38:38;24.48;43.59
72128;DHT22;60000;51.030;7.024;2023-07-13T12:41:03;24.38;43.21
72128;DHT22;60000;51.030;7.024;2023-07-13T12:43:34;24.43;43.97
72128;DHT22;60000;51.030;7.024;2023-07-13T12:46:05;24.59;44.45
72128;DHT22;60000;51.030;7.024;2023-07-13T12:48:41;25.06;43.11
72128;DHT22;60000;51.030;7.024;2023-07-13T12:51:10;25.02;41.69
72128;DHT22;60000;51.030;7.024;2023-07-13T12:53:40;25.25;42.47
72128;DHT22;60000;51.030;7.024;2023-07-13T12:56:17;25.58;40.93
72128;DHT22;60000;51.030;7.024;2023-07-13T12:58:43;25.82;40.25
72128;DHT22;60000;51.030;7.024;2023-07-13T13:01:13;25.58;40.01
72128;DHT22;60000;51.030;7.024;2023-07-13T13:03:41;25.72;40.28
72128;DHT22;60000;51.030;7.024;2023-07-13T13:08:49;26.10;39.38
72128;DHT22;60000;51.030;7.024;2023-07-13T13:11:15;26.26;40.35
72128;DHT22;60000;51.030;7.024;2023-07-13T13:13:44;26.57;40.20
72128;DHT22;60000;51.030;7.024;2023-07-13T13:16:32;26.64;38.56
72128;DHT22;60000;51.030;7.024;2023-07-13T13:19:21;26.67;37.81
72128;DHT22;60000;51.030;7.024;2023-07-13T13:21:48;26.53;38.06
72128;DHT22;60000;51.030;7.024;2023-07-13T13:24:17;26.27;38.33
72128;DHT22;60000;51.030;7.024;2023-07-13T13:26:44;26.40;38.22
72128;DHT22;60000;51.030;7.024;2023-07-13T13:29:15;26.54;37.72
72128;DHT22;60000;51.030;7.024;2023-07-13T13:31:41;26.71;37.21
72128;DHT22;60000;51.030;7.024;2023-07-13T13:34:09;26.34;37.30
72128;DHT22;60000;51.030;7.024;2023-07-13T13:36:35;25.75;37.46
72128;DHT22;60000;51.030;7.024;2023-07-13T13:39:00;25.64;38.92
72128;DHT22;60000;51.030;7.024;2023-07-13T13:41:27;25.86;38.40
72128;DHT22;60000;51.030;7.024;2023-07-13T13:43:52;25.94;38.43
72128;DHT22;60000;51.030;7.024;2023-07-13T13:46:22;26.23;38.80
72128;DHT22;60000;51.030;7.024;2023-07-13T13:48:50;26.32;38.82
72128;DHT22;60000;51.030;7.024;2023-07-13T13:51:18;26.60;38.10
72128;DHT22;60000;51.030;7.024;2023-07-13T13:53:45;26.72;36.80
72128;DHT22;60000;51.030;7.024;2023-07-13T13:56:11;26.82;35.73
72128;DHT22;60000;51.030;7.024;2023-07-13T13:58:37;26.94;36.41
72128;DHT22;60000;51.030;7.024;2023-07-13T14:01:02;26.85;36.70
72128;DHT22;60000;51.030;7.024;2023-07-13T14:03:31;26.64;36.55
72128;DHT22;60000;51.030;7.024;2023-07-13T14:05:56;26.36;37.63
72128;DHT22;60000;51.030;7.024;2023-07-13T14:08:22;26.33;38.47
72128;DHT22;60000;51.030;7.024;2023-07-13T14:10:50;26.20;37.21
72128;DHT22;60000;51.030;7.024;2023-07-13T14:13:26;25.99;37.53
72128;DHT22;60000;51.030;7.024;2023-07-13T14:15:53;25.61;38.48
72128;DHT22;60000;51.030;7.024;2023-07-13T14:18:19;25.52;38.89
72128;DHT22;60000;51.030;7.024;2023-07-13T14:20:46;25.35;38.55
72128;DHT22;60000;51.030;7.024;2023-07-13T14:23:15;25.38;39.09
72128;DHT22;60000;51.030;7.024;2023-07-13T14:25:42;25.51;39.02
72128;DHT22;60000;51.030;7.024;2023-07-13T14:28:19;25.83;39.30
72128;DHT22;60000;51.030;7.024;2023-07-13T14:30:46;26.02;37.66
72128;DHT22;60000;51.030;7.024;2023-07-13T14:33:12;26.06;37.70
72128;DHT22;60000;51.030;7.024;2023-07-13T14:35:38;26.29;37.83
72128;DHT22;60000;51.030;7.024;2023-07-13T14:38:04;26.32;35.81
72128;DHT22;60000;51.030;7.024;2023-07-13T14:40:31;26.30;36.42
72128;DHT22;60000;51.030;7.024;2023-07-13T14:42:58;26.24;36.59
72128;DHT22;60000;51.030;7.024;2023-07-13T14:45:24;26.23;37.06
72128;DHT22;60000;51.030;7.024;2023-07-13T14:47:50;26.13;37.66
72128;DHT22;60000;51.030;7.024;2023-07-13T14:50:21;25.97;38.12
72128;DHT22;60000;51.030;7.024;2023-07-13T14:52:47;25.89;38.62
72128;DHT22;60000;51.030;7.024;2023-07-13T14:55:18;25.92;38.47
72128;DHT22;60000;51.030;7.024;2023-07-13T14:57:44;25.79;38.66
72128;DHT22;60000;51.030;7.024;2023-07-13T15:00:19;25.59;39.21
72128;DHT22;60000;51.030;7.024;2023-07-13T15:02:47;25.52;39.46
72128;DHT22;60000;51.030;7.024;2023-07-13T15:05:17;25.46;39.88
72128;DHT22;60000;51.030;7.024;2023-07-13T15:07:43;25.55;39.45
72128;DHT22;60000;51.030;7.024;2023-07-13T15:10:28;25.39;39.64
72128;DHT22;60000;51.030;7.024;2023-07-13T15:13:18;25.31;39.71
72128;DHT22;60000;51.030;7.024;2023-07-13T15:15:47;25.23;39.38
72128;DHT22;60000;51.030;7.024;2023-07-13T15:18:15;25.30;39.96
72128;DHT22;60000;51.030;7.024;2023-07-13T15:20:43;25.41;39.72
72128;DHT22;60000;51.030;7.024;2023-07-13T15:23:10;25.49;39.38
72128;DHT22;60000;51.030;7.024;2023-07-13T15:25:36;25.45;39.15
72128;DHT22;60000;51.030;7.024;2023-07-13T15:28:02;25.57;39.35
72128;DHT22;60000;51.030;7.024;2023-07-13T15:30:48;25.59;39.37
72128;DHT22;60000;51.030;7.024;2023-07-13T15:35:45;25.58;39.24
72128;DHT22;60000;51.030;7.024;2023-07-13T15:38:17;25.33;39.72
72128;DHT22;60000;51.030;7.024;2023-07-13T15:40:43;25.14;40.44
72128;DHT22;60000;51.030;7.024;2023-07-13T15:43:11;24.97;40.94
72128;DHT22;60000;51.030;7.024;2023-07-13T15:45:37;24.87;40.80
72128;DHT22;60000;51.030;7.024;2023-07-13T15:48:11;24.76;40.81
72128;DHT22;60000;51.030;7.024;2023-07-13T15:50:43;24.79;42.30
72128;DHT22;60000;51.030;7.024;2023-07-13T15:53:09;24.65;43.62
72128;DHT22;60000;51.030;7.024;2023-07-13T15:55:39;24.52;44.76
72128;DHT22;60000;51.030;7.024;2023-07-13T15:58:05;24.36;45.07
72128;DHT22;60000;51.030;7.024;2023-07-13T16:00:30;24.17;45.90
72128;DHT22;60000;51.030;7.024;2023-07-13T16:02:55;23.93;46.36
72128;DHT22;60000;51.030;7.024;2023-07-13T16:05:23;23.77;47.28
72128;DHT22;60000;51.030;7.024;2023-07-13T16:07:50;23.64;47.37
72128;DHT22;60000;51.030;7.024;2023-07-13T16:10:21;23.56;48.03